Time;durP1;ratioP1;P1;durP2;ratioP2;P2;SDS_P1;SDS_P2;PMS_P1;PMS_P2;Temp;Humidity;BMP_temperature;BMP_pressure;BME280_temperature;BME280_humidity;BME280_pressure;Samples;Min_cycle;Max_cycle;Signal;HPM_P1;HPM_P2
2021/01/25 00:01:40;;;;;;;29.30;18.80;;;0.70;99.90;;;;;;4934418;29;20205;-83
2021/01/25 00:04:08;;;;;;;26.77;18.57;;;0.70;99.90;;;;;;4950475;29;20210;-82
2021/01/25 00:06:34;;;;;;;26.47;18.63;;;0.70;99.90;;;;;;4950951;29;20633;-82
2021/01/25 00:09:00;;;;;;;23.60;17.20;;;0.70;99.90;;;;;;4950592;29;20209;-83
2021/01/25 00:11:27;;;;;;;26.70;16.60;;;0.60;99.90;;;;;;4940948;29;20217;-83
2021/01/25 00:13:53;;;;;;;28.13;18.20;;;0.60;99.90;;;;;;4946627;29;20279;-81
2021/01/25 00:16:19;;;;;;;25.30;16.83;;;0.60;99.90;;;;;;4951496;28;20221;-83
2021/01/25 00:18:45;;;;;;;26.73;18.87;;;0.60;99.90;;;;;;4946351;29;20283;-81
2021/01/25 00:21:13;;;;;;;30.10;18.00;;;0.60;99.90;;;;;;4945910;28;20232;-82
2021/01/25 00:23:39;;;;;;;27.67;20.17;;;0.60;99.90;;;;;;4945437;29;20209;-83
2021/01/25 00:26:05;;;;;;;29.63;18.67;;;0.60;99.90;;;;;;4945202;29;20212;-83
2021/01/25 00:28:32;;;;;;;28.80;19.50;;;0.50;99.90;;;;;;4950358;29;20206;-82
2021/01/25 00:30:58;;;;;;;30.30;19.03;;;0.50;99.90;;;;;;4967848;28;20240;-83
2021/01/25 00:33:25;;;;;;;26.87;19.33;;;0.60;99.90;;;;;;4963776;28;20206;-82
2021/01/25 00:35:52;;;;;;;26.63;17.93;;;0.50;99.90;;;;;;4950153;29;20744;-82
2021/01/25 00:38:19;;;;;;;26.43;17.70;;;0.60;99.90;;;;;;4950980;29;20209;-82
2021/01/25 00:40:46;;;;;;;27.70;19.00;;;0.60;99.90;;;;;;4950145;28;20237;-83
2021/01/25 00:43:12;;;;;;;28.80;18.50;;;0.60;99.90;;;;;;4949346;29;20649;-83
2021/01/25 00:45:38;;;;;;;31.00;19.67;;;0.60;99.90;;;;;;4948015;29;20220;-83
2021/01/25 00:48:05;;;;;;;38.27;20.97;;;0.50;99.90;;;;;;4945644;28;20209;-82
2021/01/25 00:50:31;;;;;;;29.60;18.67;;;0.50;99.90;;;;;;4945763;29;20557;-82
2021/01/25 00:52:58;;;;;;;28.13;18.50;;;0.50;99.90;;;;;;4945942;29;20220;-82
2021/01/25 00:55:25;;;;;;;33.50;20.13;;;0.50;99.90;;;;;;4946514;28;20213;-82
2021/01/25 00:57:51;;;;;;;28.90;20.70;;;0.50;99.90;;;;;;4949786;29;20198;-82
2021/01/25 01:00:18;;;;;;;29.17;20.47;;;0.60;99.90;;;;;;4948845;29;20230;-82
2021/01/25 01:02:45;;;;;;;31.10;21.10;;;0.60;99.90;;;;;;4952384;28;20301;-81
2021/01/25 01:05:11;;;;;;;30.00;20.10;;;0.50;99.90;;;;;;4968744;28;20204;-82
2021/01/25 01:07:38;;;;;;;27.10;19.43;;;0.50;99.90;;;;;;4967692;28;20215;-82
2021/01/25 01:10:06;;;;;;;29.10;19.70;;;0.50;99.90;;;;;;4963740;28;20201;-83
2021/01/25 01:12:33;;;;;;;29.47;20.60;;;0.50;99.90;;;;;;4965257;28;20648;-83
2021/01/25 01:15:00;;;;;;;31.17;20.03;;;0.50;99.90;;;;;;4971498;28;20204;-82
2021/01/25 01:17:28;;;;;;;26.97;19.83;;;0.50;99.90;;;;;;4972571;28;20285;-83
2021/01/25 01:19:54;;;;;;;28.03;18.83;;;0.50;99.90;;;;;;4963557;28;20236;-82
2021/01/25 01:22:21;;;;;;;24.93;17.37;;;0.50;99.90;;;;;;4952964;29;20272;-82
2021/01/25 01:24:47;;;;;;;30.77;20.87;;;0.50;99.90;;;;;;4961633;28;20536;-82
2021/01/25 01:27:13;;;;;;;27.40;18.80;;;0.50;99.90;;;;;;4972422;28;20236;-82
2021/01/25 01:29:40;;;;;;;26.13;17.83;;;0.50;99.90;;;;;;4966962;28;20204;-83
2021/01/25 01:32:06;;;;;;;26.70;18.23;;;0.50;99.90;;;;;;4958723;28;20311;-83
2021/01/25 01:34:33;;;;;;;28.37;18.27;;;0.40;99.90;;;;;;4952731;29;20213;-81
2021/01/25 01:36:59;;;;;;;29.03;19.77;;;0.50;99.90;;;;;;4951863;29;20220;-81
2021/01/25 01:39:25;;;;;;;30.10;20.00;;;0.50;99.90;;;;;;4952182;29;20225;-81
2021/01/25 01:41:52;;;;;;;29.67;18.40;;;0.50;99.90;;;;;;4952062;28;20228;-81
2021/01/25 01:44:18;;;;;;;28.80;18.80;;;0.50;99.90;;;;;;4953033;29;20213;-81
2021/01/25 01:46:46;;;;;;;30.37;19.37;;;0.50;99.90;;;;;;4953268;29;20205;-83
2021/01/25 01:49:15;;;;;;;24.00;17.63;;;0.50;99.90;;;;;;4952659;28;20221;-83
2021/01/25 01:51:41;;;;;;;24.07;17.83;;;0.50;99.90;;;;;;4952748;29;20194;-82
2021/01/25 01:54:08;;;;;;;23.20;16.77;;;0.50;99.90;;;;;;4952911;29;20530;-81
2021/01/25 01:56:35;;;;;;;24.50;16.70;;;0.50;99.90;;;;;;4952565;29;20212;-83
2021/01/25 01:59:02;;;;;;;23.43;16.30;;;0.50;99.90;;;;;;4953306;28;20228;-82
2021/01/25 02:01:28;;;;;;;24.77;17.33;;;0.50;99.90;;;;;;4952413;29;20849;-85
2021/01/25 02:03:57;;;;;;;28.20;19.37;;;0.40;99.90;;;;;;4952917;28;20212;-81
2021/01/25 02:06:25;;;;;;;22.47;15.80;;;0.50;99.90;;;;;;4953285;29;20206;-83
2021/01/25 02:08:52;;;;;;;24.63;17.13;;;0.40;99.90;;;;;;4953161;29;20209;-82
2021/01/25 02:11:20;;;;;;;30.73;20.20;;;0.40;99.90;;;;;;4952760;28;20217;-83
2021/01/25 02:13:49;;;;;;;24.87;17.83;;;0.40;99.90;;;;;;4952452;29;20241;-83
2021/01/25 02:16:15;;;;;;;27.67;18.00;;;0.40;99.90;;;;;;4952686;29;20288;-83
2021/01/25 02:18:42;;;;;;;25.50;17.70;;;0.40;99.90;;;;;;4952379;28;20212;-83
2021/01/25 02:21:13;;;;;;;24.67;17.33;;;0.40;99.90;;;;;;4952534;29;20232;-83
2021/01/25 02:23:55;;;;;;;27.30;18.17;;;0.40;99.90;;;;;;4952799;28;20217;-83
2021/01/25 02:26:30;;;;;;;25.33;18.13;;;0.30;99.90;;;;;;4952716;29;20204;-83
2021/01/25 02:28:58;;;;;;;26.40;16.47;;;0.30;99.90;;;;;;4953125;29;20211;-84
2021/01/25 02:31:26;;;;;;;24.13;16.57;;;0.30;99.90;;;;;;4951319;28;20232;-83
2021/01/25 02:33:54;;;;;;;29.07;18.90;;;0.30;99.90;;;;;;4952547;29;20210;-84
2021/01/25 02:36:22;;;;;;;24.93;16.53;;;0.30;99.90;;;;;;4952282;29;20805;-81
2021/01/25 02:38:50;;;;;;;23.73;16.93;;;0.20;99.90;;;;;;4955451;28;20207;-81
2021/01/25 02:41:21;;;;;;;30.23;19.83;;;0.20;99.90;;;;;;4971699;28;20636;-83
2021/01/25 02:43:50;;;;;;;31.53;19.43;;;0.20;99.90;;;;;;4971507;28;20215;-83
2021/01/25 02:46:18;;;;;;;28.30;20.20;;;0.20;99.90;;;;;;4970531;28;20289;-81
2021/01/25 02:48:44;;;;;;;29.77;20.60;;;0.20;99.90;;;;;;4966624;28;20252;-82
2021/01/25 02:51:12;;;;;;;29.17;19.20;;;0.20;99.90;;;;;;4952272;29;20209;-83
2021/01/25 02:53:39;;;;;;;30.30;20.83;;;0.20;99.90;;;;;;4950578;28;20209;-83
2021/01/25 02:56:06;;;;;;;31.10;20.17;;;0.10;99.90;;;;;;4948954;29;20259;-83
2021/01/25 02:58:33;;;;;;;27.10;18.80;;;0.10;99.90;;;;;;4950270;29;20201;-83
2021/01/25 03:00:59;;;;;;;25.73;17.20;;;0.10;99.90;;;;;;4954612;28;20220;-83
2021/01/25 03:03:28;;;;;;;32.40;21.67;;;0.10;99.90;;;;;;4970542;28;20208;-84
2021/01/25 03:05:56;;;;;;;29.80;20.37;;;0.10;99.90;;;;;;4971039;28;20196;-83
2021/01/25 03:08:22;;;;;;;30.67;20.90;;;0.00;99.90;;;;;;4954259;28;20221;-84
2021/01/25 03:10:49;;;;;;;32.27;20.60;;;0.00;99.90;;;;;;4951411;29;20216;-82
2021/01/25 03:13:15;;;;;;;31.53;20.57;;;0.00;99.90;;;;;;4950899;29;20657;-82
2021/01/25 03:15:44;;;;;;;29.40;20.33;;;-0.10;99.90;;;;;;4951017;29;20201;-82
2021/01/25 03:18:10;;;;;;;35.87;23.37;;;-0.10;99.90;;;;;;4950656;28;20665;-83
2021/01/25 03:20:37;;;;;;;29.57;20.57;;;-0.10;99.90;;;;;;4949506;29;20676;-81
2021/01/25 03:23:04;;;;;;;34.33;21.57;;;-0.10;99.90;;;;;;4949955;28;20268;-82
2021/01/25 03:25:30;;;;;;;28.70;20.37;;;-0.10;99.90;;;;;;4950804;29;20212;-82
2021/01/25 03:27:56;;;;;;;28.77;19.57;;;-0.20;99.90;;;;;;4951018;28;20254;-82
2021/01/25 03:30:23;;;;;;;28.67;19.70;;;-0.20;99.90;;;;;;4949464;29;20231;-83
2021/01/25 03:32:49;;;;;;;26.93;18.47;;;-0.20;99.90;;;;;;4949973;28;20268;-84
2021/01/25 03:35:15;;;;;;;24.30;18.10;;;-0.20;99.90;;;;;;4949699;28;20283;-82
2021/01/25 03:37:43;;;;;;;25.97;17.83;;;-0.20;99.90;;;;;;4949979;28;20217;-83
2021/01/25 03:40:10;;;;;;;24.20;17.20;;;-0.30;99.90;;;;;;4949830;29;20808;-83
2021/01/25 03:42:36;;;;;;;23.63;17.03;;;-0.30;99.90;;;;;;4950155;29;20260;-81
2021/01/25 03:45:03;;;;;;;24.87;17.20;;;-0.30;99.90;;;;;;4950752;29;20208;-85
2021/01/25 03:47:29;;;;;;;23.63;16.40;;;-0.30;99.90;;;;;;4954390;28;20209;-84
2021/01/25 03:49:55;;;;;;;26.17;16.80;;;-0.30;99.90;;;;;;4967544;29;20205;-84
2021/01/25 03:52:23;;;;;;;27.03;17.37;;;-0.30;99.90;;;;;;4964224;29;20209;-84
2021/01/25 03:54:50;;;;;;;23.57;17.07;;;-0.40;99.90;;;;;;4961336;28;20309;-80
2021/01/25 03:57:16;;;;;;;23.47;16.03;;;-0.40;99.90;;;;;;4955047;29;20228;-83
2021/01/25 03:59:43;;;;;;;23.23;16.23;;;-0.40;99.90;;;;;;4951950;28;20225;-85
2021/01/25 04:02:10;;;;;;;23.63;16.57;;;-0.40;99.90;;;;;;4951737;29;20201;-84
2021/01/25 04:04:36;;;;;;;24.53;17.40;;;-0.50;99.90;;;;;;4950614;29;20299;-82
2021/01/25 04:07:03;;;;;;;26.27;17.43;;;-0.50;99.90;;;;;;4951731;29;20219;-85
2021/01/25 04:09:29;;;;;;;31.90;19.70;;;-0.50;99.90;;;;;;4951867;28;20221;-85
2021/01/25 04:11:56;;;;;;;37.07;22.43;;;-0.60;99.90;;;;;;4950931;29;20216;-85
2021/01/25 04:14:22;;;;;;;32.13;20.43;;;-0.50;99.90;;;;;;4950360;28;20240;-84
2021/01/25 04:16:49;;;;;;;29.63;19.53;;;-0.50;99.90;;;;;;4951349;28;20221;-82
2021/01/25 04:19:15;;;;;;;35.57;22.27;;;-0.50;99.90;;;;;;4950140;29;20209;-81
2021/01/25 04:21:41;;;;;;;38.17;23.07;;;-0.50;99.90;;;;;;4950821;28;20959;-82
2021/01/25 04:24:08;;;;;;;32.13;20.87;;;-0.50;99.90;;;;;;4950457;29;20571;-83
2021/01/25 04:26:34;;;;;;;32.77;21.50;;;-0.50;99.90;;;;;;4951030;28;20656;-83
2021/01/25 04:29:01;;;;;;;31.47;22.40;;;-0.50;99.90;;;;;;4948618;29;20582;-86
2021/01/25 04:31:28;;;;;;;35.40;21.77;;;-0.50;99.90;;;;;;4948516;28;20287;-85
2021/01/25 04:33:54;;;;;;;35.03;23.17;;;-0.50;99.90;;;;;;4957856;28;20223;-85
2021/01/25 04:36:21;;;;;;;34.00;22.30;;;-0.50;99.90;;;;;;4968243;28;20192;-85
2021/01/25 04:38:47;;;;;;;32.67;21.27;;;-0.60;99.90;;;;;;4945837;28;20633;-86
2021/01/25 04:41:14;;;;;;;29.20;18.77;;;-0.60;99.90;;;;;;4946650;29;20249;-87
2021/01/25 04:43:40;;;;;;;29.57;18.80;;;-0.60;99.90;;;;;;4950957;29;20197;-86
2021/01/25 04:46:08;;;;;;;28.27;18.93;;;-0.70;99.90;;;;;;4952289;28;20210;-87
2021/01/25 04:48:39;;;;;;;28.93;18.47;;;-0.70;99.90;;;;;;4954985;29;20212;-87
2021/01/25 04:51:05;;;;;;;26.37;18.40;;;-0.70;99.90;;;;;;4966152;28;20204;-85
2021/01/25 04:53:32;;;;;;;24.53;17.90;;;-0.70;99.90;;;;;;4969802;28;20208;-85
2021/01/25 04:55:59;;;;;;;26.27;17.00;;;-0.80;99.90;;;;;;4952234;29;20214;-86
2021/01/25 04:58:25;;;;;;;24.93;17.70;;;-0.80;99.90;;;;;;4953444;29;20471;-87
2021/01/25 05:00:53;;;;;;;27.10;18.13;;;-0.80;99.90;;;;;;4954987;28;20264;-87
2021/01/25 05:03:20;;;;;;;28.43;18.03;;;-0.90;99.90;;;;;;4954508;29;20213;-88
2021/01/25 05:05:47;;;;;;;28.87;18.13;;;-0.90;99.90;;;;;;4955489;29;20201;-88
2021/01/25 05:08:13;;;;;;;24.67;17.03;;;-0.90;99.90;;;;;;4955038;29;20229;-87
2021/01/25 05:10:39;;;;;;;28.77;18.50;;;-0.90;99.90;;;;;;4958055;28;20205;-87
2021/01/25 05:13:06;;;;;;;24.90;16.83;;;-0.90;99.90;;;;;;4972570;28;20282;-86
2021/01/25 05:15:34;;;;;;;28.70;18.37;;;-1.00;99.90;;;;;;4954778;29;20220;-84
2021/01/25 05:18:03;;;;;;;27.70;19.00;;;-1.00;99.90;;;;;;4955561;29;20528;-87
2021/01/25 05:20:32;;;;;;;25.53;18.80;;;-1.00;99.90;;;;;;4954345;29;20280;-87
2021/01/25 05:23:01;;;;;;;25.37;16.93;;;-1.10;99.90;;;;;;4969796;28;20267;-88
2021/01/25 05:25:29;;;;;;;24.07;16.93;;;-1.10;99.90;;;;;;4974764;28;20225;-88
2021/01/25 05:27:57;;;;;;;23.77;16.63;;;-1.10;99.90;;;;;;4974671;28;20197;-88
2021/01/25 05:30:24;;;;;;;26.87;18.00;;;-1.10;99.90;;;;;;4974177;28;20224;-87
2021/01/25 05:32:52;;;;;;;27.50;17.50;;;-1.10;99.90;;;;;;4957271;28;20327;-88
2021/01/25 05:35:22;;;;;;;27.30;18.70;;;-1.10;99.90;;;;;;4955107;29;20832;-88
2021/01/25 05:37:54;;;;;;;25.33;18.57;;;-1.20;99.90;;;;;;4954314;29;20985;-89
2021/01/25 05:40:22;;;;;;;26.30;18.00;;;-1.20;99.90;;;;;;4955069;29;20232;-87
2021/01/25 05:42:49;;;;;;;34.53;23.30;;;-1.20;99.90;;;;;;4954422;28;20280;-88
2021/01/25 05:45:16;;;;;;;37.20;23.80;;;-1.20;99.90;;;;;;4954730;29;20189;-88
2021/01/25 05:47:50;;;;;;;33.33;21.33;;;-1.20;99.90;;;;;;4953884;29;20209;-88
2021/01/25 05:50:30;;;;;;;30.20;20.30;;;-1.30;99.90;;;;;;4947988;28;20214;-87
2021/01/25 05:53:00;;;;;;;29.40;18.93;;;-1.20;99.90;;;;;;4952107;29;20299;-86
2021/01/25 05:55:27;;;;;;;28.20;20.20;;;-1.30;99.90;;;;;;4959576;28;20676;-88
2021/01/25 05:57:54;;;;;;;30.13;18.83;;;-1.30;99.90;;;;;;4973154;28;20197;-88
2021/01/25 06:00:22;;;;;;;26.73;18.20;;;-1.30;99.90;;;;;;4958992;28;20236;-88
2021/01/25 06:02:50;;;;;;;33.43;19.57;;;-1.40;99.90;;;;;;4954414;29;20493;-88
2021/01/25 06:05:26;;;;;;;28.77;19.63;;;-1.40;99.90;;;;;;4954942;28;20240;-88
2021/01/25 06:07:57;;;;;;;28.43;19.23;;;-1.40;99.90;;;;;;4954541;29;20197;-88
2021/01/25 06:10:28;;;;;;;30.60;19.87;;;-1.40;99.90;;;;;;4954974;28;20190;-89
2021/01/25 06:13:03;;;;;;;27.63;18.10;;;-1.40;99.90;;;;;;4973381;28;20247;-88
2021/01/25 06:15:30;;;;;;;26.80;19.53;;;-1.50;99.90;;;;;;4973525;28;20291;-88
2021/01/25 06:17:59;;;;;;;28.47;18.00;;;-1.50;99.90;;;;;;4973084;28;20220;-88
2021/01/25 06:20:28;;;;;;;26.43;18.00;;;-1.50;99.90;;;;;;4972978;28;20788;-87
2021/01/25 06:22:55;;;;;;;29.77;19.43;;;-1.50;99.90;;;;;;4958021;28;20284;-87
2021/01/25 06:25:26;;;;;;;28.37;19.13;;;-1.50;99.90;;;;;;4953791;29;20213;-88
2021/01/25 06:27:56;;;;;;;30.50;19.53;;;-1.50;99.90;;;;;;4954131;29;20205;-86
2021/01/25 06:30:25;;;;;;;32.10;21.03;;;-1.60;99.90;;;;;;4953913;28;20243;-84
2021/01/25 06:32:53;;;;;;;25.53;19.03;;;-1.60;99.90;;;;;;4953828;29;20546;-84
2021/01/25 06:35:19;;;;;;;31.50;20.97;;;-1.60;99.90;;;;;;4953499;29;20874;-87
2021/01/25 06:37:57;;;;;;;29.97;19.83;;;-1.60;99.90;;;;;;4966589;28;20208;-88
2021/01/25 06:40:28;;;;;;;28.77;19.90;;;-1.60;99.90;;;;;;4972431;28;20224;-89
2021/01/25 06:42:54;;;;;;;28.97;19.57;;;-1.60;99.90;;;;;;4973021;28;20573;-88
2021/01/25 06:45:24;;;;;;;28.70;18.47;;;-1.60;99.90;;;;;;4970700;28;20319;-89
2021/01/25 06:47:51;;;;;;;29.97;18.40;;;-1.60;99.90;;;;;;4953930;29;20202;-89
2021/01/25 06:50:19;;;;;;;28.27;18.30;;;-1.60;99.90;;;;;;4953562;28;20229;-87
2021/01/25 06:52:50;;;;;;;27.17;18.67;;;-1.70;99.90;;;;;;4952449;29;20205;-89
2021/01/25 06:55:17;;;;;;;29.40;20.47;;;-1.70;99.90;;;;;;4966040;28;20217;-89
2021/01/25 06:57:47;;;;;;;28.57;18.97;;;-1.70;99.90;;;;;;4973140;28;20204;-87
2021/01/25 07:00:19;;;;;;;30.70;18.83;;;-1.70;99.90;;;;;;4972488;28;20259;-88
2021/01/25 07:02:53;;;;;;;28.33;19.53;;;-1.70;99.90;;;;;;4972145;28;20197;-91
2021/01/25 07:05:26;;;;;;;29.87;19.63;;;-1.70;99.90;;;;;;4972885;28;20208;-88
2021/01/25 07:08:12;;;;;;;28.97;19.30;;;-1.70;99.90;;;;;;4972236;28;20283;-91
2021/01/25 07:10:47;;;;;;;29.30;18.33;;;-1.70;99.90;;;;;;4956602;28;20272;-90
2021/01/25 07:13:14;;;;;;;26.60;18.00;;;-1.70;99.90;;;;;;4953647;29;20240;-89
2021/01/25 07:15:41;;;;;;;31.97;20.30;;;-1.70;99.90;;;;;;4956430;28;20223;-89
2021/01/25 07:18:08;;;;;;;30.33;20.47;;;-1.70;99.90;;;;;;4970667;28;20266;-91
2021/01/25 07:20:34;;;;;;;28.33;18.20;;;-1.70;99.90;;;;;;4966073;28;20537;-89
2021/01/25 07:23:06;;;;;;;31.83;20.73;;;-1.80;99.90;;;;;;4954849;28;20219;-91
2021/01/25 07:25:32;;;;;;;30.57;20.83;;;-1.80;99.90;;;;;;4952448;29;20745;-87
2021/01/25 07:28:03;;;;;;;31.10;20.83;;;-1.80;99.90;;;;;;4951340;28;20268;-91
2021/01/25 07:30:31;;;;;;;32.50;21.60;;;-1.80;99.90;;;;;;4951873;29;20229;-84
2021/01/25 07:33:02;;;;;;;30.83;19.37;;;-1.80;99.90;;;;;;4952926;29;20241;-90
2021/01/25 07:35:28;;;;;;;27.20;18.80;;;-1.80;99.90;;;;;;4961327;28;20544;-91
2021/01/25 07:37:55;;;;;;;31.20;20.33;;;-1.80;99.90;;;;;;4973001;28;20212;-90
2021/01/25 07:40:23;;;;;;;32.50;20.70;;;-1.80;99.90;;;;;;4953511;28;20244;-91
2021/01/25 07:42:49;;;;;;;29.30;19.73;;;-1.80;99.90;;;;;;4952011;28;20205;-91
2021/01/25 07:45:16;;;;;;;32.97;20.67;;;-1.80;99.90;;;;;;4947158;29;20213;-91
2021/01/25 07:47:47;;;;;;;31.27;20.10;;;-1.80;99.90;;;;;;4956977;28;20204;-88
2021/01/25 07:50:16;;;;;;;25.63;18.43;;;-1.80;99.90;;;;;;4971681;28;20203;-89
2021/01/25 07:52:43;;;;;;;28.43;19.47;;;-1.80;99.90;;;;;;4971043;28;20270;-90
2021/01/25 07:55:14;;;;;;;31.60;20.20;;;-1.80;99.90;;;;;;4971003;28;20428;-90
2021/01/25 07:57:40;;;;;;;30.80;20.87;;;-1.70;99.90;;;;;;4971309;28;20223;-90
2021/01/25 08:00:17;;;;;;;28.10;19.27;;;-1.70;99.90;;;;;;4967895;28;20228;-90
2021/01/25 08:02:48;;;;;;;27.50;18.80;;;-1.70;99.90;;;;;;4950003;29;20197;-89
2021/01/25 08:05:16;;;;;;;30.27;19.03;;;-1.70;99.90;;;;;;4950940;29;20193;-89
2021/01/25 08:07:44;;;;;;;31.13;19.57;;;-1.70;99.90;;;;;;4951795;29;20202;-87
2021/01/25 08:25:18;;;;;;;36.17;21.87;;;-1.60;99.90;;;;;;4842769;29;20767;-87
2021/01/25 08:27:54;;;;;;;29.03;20.30;;;-1.50;99.90;;;;;;4895846;29;20203;-87
2021/01/25 08:30:22;;;;;;;33.93;21.73;;;-1.50;99.90;;;;;;4954222;28;20220;-86
2021/01/25 08:32:52;;;;;;;35.63;22.40;;;-1.40;99.90;;;;;;4963168;28;20660;-87
2021/01/25 08:35:30;;;;;;;37.13;24.40;;;-1.30;99.90;;;;;;4954339;29;20288;-86
2021/01/25 08:38:10;;;;;;;38.10;23.07;;;-1.20;99.90;;;;;;4953393;29;20205;-84
2021/01/25 08:40:39;;;;;;;36.57;24.17;;;-1.10;99.90;;;;;;4954689;28;20229;-84
2021/01/25 08:43:17;;;;;;;37.90;23.13;;;-1.00;99.90;;;;;;4953719;29;20233;-84
2021/01/25 08:45:43;;;;;;;40.70;24.60;;;-1.00;99.90;;;;;;4954650;29;20208;-83
2021/01/25 08:48:10;;;;;;;39.37;24.77;;;-0.90;99.90;;;;;;4955185;28;20217;-83
2021/01/25 08:50:37;;;;;;;36.10;24.03;;;-0.80;99.90;;;;;;4954441;29;20197;-84
2021/01/25 08:53:07;;;;;;;41.50;25.27;;;-0.70;99.90;;;;;;4954631;29;20209;-84
2021/01/25 08:55:39;;;;;;;42.00;25.63;;;-0.70;99.90;;;;;;4954267;29;20208;-83
2021/01/25 08:58:17;;;;;;;38.73;24.83;;;-0.60;99.90;;;;;;4966832;28;20223;-85
2021/01/25 09:00:43;;;;;;;38.00;24.83;;;-0.50;99.90;;;;;;4973874;28;20615;-87
2021/01/25 09:03:12;;;;;;;37.37;23.30;;;-0.50;99.90;;;;;;4974963;28;20235;-88
2021/01/25 09:05:38;;;;;;;40.93;26.03;;;-0.40;99.90;;;;;;4974187;28;20205;-89
2021/01/25 09:08:05;;;;;;;34.03;24.33;;;-0.40;99.90;;;;;;4974403;28;20201;-86
2021/01/25 09:10:32;;;;;;;40.30;25.80;;;-0.40;99.90;;;;;;4974647;28;20204;-87
2021/01/25 09:13:00;;;;;;;36.80;24.20;;;-0.40;99.90;;;;;;4961798;28;20260;-86
2021/01/25 09:15:26;;;;;;;36.93;24.37;;;-0.40;99.90;;;;;;4955138;29;20210;-86
2021/01/25 09:17:53;;;;;;;33.40;23.50;;;-0.30;99.90;;;;;;4954261;28;20205;-85
2021/01/25 09:20:20;;;;;;;35.13;24.77;;;-0.30;99.90;;;;;;4954945;29;20232;-86
2021/01/25 09:22:46;;;;;;;39.60;26.00;;;-0.30;99.90;;;;;;4955030;29;20197;-86
2021/01/25 09:25:15;;;;;;;44.07;28.23;;;-0.20;99.90;;;;;;4965113;28;20240;-86
2021/01/25 09:27:41;;;;;;;37.93;25.40;;;-0.20;99.90;;;;;;4973703;28;20228;-86
2021/01/25 09:30:11;;;;;;;36.90;24.93;;;-0.10;99.90;;;;;;4974359;28;20224;-84
2021/01/25 09:32:38;;;;;;;38.83;24.37;;;0.00;99.90;;;;;;4973374;28;20219;-87
2021/01/25 09:35:06;;;;;;;41.93;23.63;;;0.00;99.90;;;;;;4960455;28;20598;-86
2021/01/25 09:37:32;;;;;;;33.30;22.83;;;0.10;99.90;;;;;;4954505;29;20216;-83
2021/01/25 09:39:58;;;;;;;33.03;21.10;;;0.20;99.90;;;;;;4954199;29;20253;-85
2021/01/25 09:42:25;;;;;;;31.37;21.73;;;0.30;99.90;;;;;;4953595;28;20606;-84
2021/01/25 09:44:51;;;;;;;28.50;18.27;;;0.40;99.90;;;;;;4953835;29;20198;-83
2021/01/25 09:47:18;;;;;;;28.67;16.07;;;0.50;99.90;;;;;;4954779;28;20201;-86
2021/01/25 09:49:44;;;;;;;16.60;10.90;;;0.70;99.90;;;;;;4952982;29;20216;-83
2021/01/25 09:52:11;;;;;;;14.90;9.87;;;0.90;99.90;;;;;;4952931;29;20201;-84
2021/01/25 09:54:39;;;;;;;14.93;10.00;;;1.10;99.90;;;;;;4952012;29;20209;-83
2021/01/25 09:57:05;;;;;;;14.47;9.87;;;1.40;99.90;;;;;;4953351;28;20213;-81
2021/01/25 09:59:32;;;;;;;15.20;10.13;;;1.60;99.90;;;;;;4949500;29;20216;-82
2021/01/25 10:01:58;;;;;;;13.33;9.73;;;1.70;99.90;;;;;;4948589;28;20237;-83
2021/01/25 10:04:25;;;;;;;13.93;7.57;;;1.80;99.90;;;;;;4949513;28;20220;-83
2021/01/25 10:06:51;;;;;;;10.17;7.20;;;1.90;99.90;;;;;;4950684;28;20220;-82
2021/01/25 10:09:18;;;;;;;8.93;6.13;;;2.00;99.90;;;;;;4947030;29;20219;-81
2021/01/25 10:11:44;;;;;;;8.20;5.03;;;2.00;99.90;;;;;;4949418;29;20665;-81
2021/01/25 10:14:11;;;;;;;9.50;4.63;;;2.10;99.90;;;;;;4964710;28;20215;-82
2021/01/25 10:16:37;;;;;;;8.10;3.80;;;2.20;99.90;;;;;;4968445;28;20513;-80
2021/01/25 10:19:03;;;;;;;7.03;3.30;;;2.30;99.90;;;;;;4967817;28;20205;-80
2021/01/25 10:21:30;;;;;;;6.17;3.47;;;2.40;99.90;;;;;;4967468;28;20286;-81
2021/01/25 10:23:57;;;;;;;6.33;3.60;;;2.50;99.90;;;;;;4966766;28;20868;-82
2021/01/25 10:26:23;;;;;;;5.80;3.80;;;2.60;99.90;;;;;;4962646;28;20220;-80
2021/01/25 10:28:50;;;;;;;7.63;3.47;;;2.70;99.90;;;;;;4944434;29;20209;-80
2021/01/25 10:31:17;;;;;;;5.43;3.33;;;2.80;99.90;;;;;;4943943;28;20229;-80
2021/01/25 10:33:43;;;;;;;2.67;1.80;;;2.90;99.90;;;;;;4946296;29;20649;-79
2021/01/25 10:36:10;;;;;;;2.97;1.77;;;3.10;99.90;;;;;;4947784;29;20209;-80
2021/01/25 10:38:37;;;;;;;3.33;1.23;;;3.20;99.90;;;;;;4947038;28;20292;-79
2021/01/25 10:41:03;;;;;;;2.40;1.03;;;3.40;99.90;;;;;;4947752;29;20284;-80
2021/01/25 10:43:30;;;;;;;1.97;1.43;;;3.50;99.90;;;;;;4946398;28;20221;-79
2021/01/25 10:45:56;;;;;;;3.37;1.57;;;3.60;99.90;;;;;;4950166;28;20255;-80
2021/01/25 10:48:27;;;;;;;1.47;0.80;;;3.70;99.90;;;;;;4952736;28;20256;-80
2021/01/25 10:50:54;;;;;;;1.47;1.00;;;3.80;99.90;;;;;;4945499;29;20496;-82
2021/01/25 10:53:20;;;;;;;1.93;0.60;;;3.90;99.90;;;;;;4946481;29;20278;-80
2021/01/25 10:55:54;;;;;;;1.13;0.80;;;3.90;99.90;;;;;;4947140;28;20216;-81
2021/01/25 10:58:20;;;;;;;1.03;0.60;;;3.90;99.90;;;;;;4947091;29;20594;-86
2021/01/25 11:00:46;;;;;;;1.00;0.60;;;3.90;99.90;;;;;;4945076;29;20217;-80
2021/01/25 11:03:13;;;;;;;2.27;0.60;;;4.00;99.90;;;;;;4946763;28;20209;-81
2021/01/25 11:05:39;;;;;;;1.87;0.60;;;4.00;99.90;;;;;;4946936;29;20221;-81
2021/01/25 11:08:05;;;;;;;2.13;0.80;;;4.10;99.90;;;;;;4947019;29;20271;-82
2021/01/25 11:10:32;;;;;;;1.00;0.50;;;4.10;99.90;;;;;;4949497;28;20573;-80
2021/01/25 11:12:59;;;;;;;0.90;0.47;;;4.10;99.90;;;;;;4958824;28;20221;-80
2021/01/25 11:15:25;;;;;;;0.97;0.50;;;4.20;99.90;;;;;;4945757;29;20569;-83
2021/01/25 11:17:51;;;;;;;3.97;0.43;;;4.30;99.90;;;;;;4945915;29;20213;-80
2021/01/25 11:20:20;;;;;;;0.40;0.30;;;4.50;99.90;;;;;;4945035;28;20229;-81
2021/01/25 11:22:47;;;;;;;0.67;0.43;;;4.40;99.90;;;;;;4945155;28;20213;-80
2021/01/25 11:25:14;;;;;;;1.53;0.70;;;4.40;99.90;;;;;;4945013;29;20237;-80
2021/01/25 11:27:40;;;;;;;1.07;0.60;;;4.50;99.90;;;;;;4944962;29;20201;-80
2021/01/25 11:30:09;;;;;;;3.30;0.67;;;4.60;99.90;;;;;;4945087;28;20233;-80
2021/01/25 11:32:35;;;;;;;1.07;0.60;;;4.60;99.90;;;;;;4946003;29;20193;-80
2021/01/25 11:35:01;;;;;;;1.73;0.67;;;4.80;99.90;;;;;;4946841;28;20280;-80
2021/01/25 11:37:28;;;;;;;1.97;0.70;;;4.90;99.90;;;;;;4947231;29;20208;-83
2021/01/25 11:39:54;;;;;;;0.70;0.53;;;5.10;99.90;;;;;;4948122;28;20217;-83
2021/01/25 11:42:20;;;;;;;1.73;0.60;;;5.10;99.90;;;;;;4949010;29;20229;-83
2021/01/25 11:44:47;;;;;;;0.77;0.40;;;5.00;99.90;;;;;;4950098;29;20212;-84
2021/01/25 11:47:14;;;;;;;1.33;0.63;;;5.00;99.90;;;;;;4950633;28;20835;-85
2021/01/25 11:49:40;;;;;;;1.03;0.60;;;4.80;99.90;;;;;;4968797;28;20216;-84
2021/01/25 11:52:07;;;;;;;1.33;0.60;;;4.60;99.90;;;;;;4970197;28;20205;-83
2021/01/25 11:54:33;;;;;;;2.43;0.80;;;4.50;99.90;;;;;;4961316;28;20213;-83
2021/01/25 11:57:00;;;;;;;2.43;0.90;;;4.40;99.90;;;;;;4952944;29;20260;-87
2021/01/25 11:59:26;;;;;;;4.10;1.07;;;4.40;99.90;;;;;;4953738;29;20212;-87
2021/01/25 12:01:52;;;;;;;2.10;0.97;;;4.30;99.90;;;;;;4954944;28;20240;-86
2021/01/25 12:04:20;;;;;;;4.10;1.00;;;4.30;99.90;;;;;;4955470;29;20205;-87
2021/01/25 12:06:51;;;;;;;3.63;1.10;;;4.40;99.90;;;;;;4955051;29;20228;-87
2021/01/25 12:09:17;;;;;;;3.97;0.97;;;4.70;99.90;;;;;;4956111;28;20656;-87
2021/01/25 12:11:44;;;;;;;7.77;1.30;;;4.80;99.90;;;;;;4954788;29;20296;-86
2021/01/25 12:14:10;;;;;;;5.50;0.97;;;5.00;99.90;;;;;;4953819;29;20256;-84
2021/01/25 12:16:37;;;;;;;4.50;1.20;;;5.10;99.90;;;;;;4952586;28;20209;-85
2021/01/25 12:19:04;;;;;;;3.03;1.10;;;5.20;99.90;;;;;;4952002;29;20237;-85
2021/01/25 12:21:31;;;;;;;4.80;1.17;;;5.20;99.90;;;;;;4954094;29;20233;-80
2021/01/25 12:23:57;;;;;;;2.17;1.00;;;5.30;99.90;;;;;;4958860;29;20240;-83
2021/01/25 12:26:24;;;;;;;3.63;1.13;;;5.30;99.90;;;;;;4960911;28;20621;-85
2021/01/25 12:28:51;;;;;;;2.63;1.43;;;5.30;99.90;;;;;;4958311;28;20299;-85
2021/01/25 12:31:18;;;;;;;4.40;1.80;;;5.40;99.90;;;;;;4968655;28;20228;-86
2021/01/25 12:33:44;;;;;;;3.97;1.30;;;5.40;99.90;;;;;;4970065;28;20219;-86
2021/01/25 12:36:11;;;;;;;7.57;1.20;;;5.50;99.90;;;;;;4970661;28;20283;-87
2021/01/25 12:38:38;;;;;;;3.87;1.20;;;5.60;99.90;;;;;;4968561;28;20318;-86
2021/01/25 12:41:04;;;;;;;3.77;1.00;;;5.60;99.90;;;;;;4966506;28;20228;-84
2021/01/25 12:43:32;;;;;;;4.97;0.77;;;5.70;99.90;;;;;;4965803;28;20260;-84
2021/01/25 12:45:58;;;;;;;3.63;1.00;;;5.70;99.90;;;;;;4929983;29;20212;-86
2021/01/25 12:48:24;;;;;;;3.07;0.97;;;5.80;99.90;;;;;;4947000;29;20197;-85
2021/01/25 12:50:51;;;;;;;7.87;1.30;;;5.90;99.90;;;;;;4955835;28;20625;-84
2021/01/25 12:53:17;;;;;;;4.33;1.10;;;6.00;99.90;;;;;;4974054;23;20229;-82